AirNav   Pilot Hours Calculator
 
 491 users online  

12AZ Ranta Strip Airport
Morristown, Arizona, USA

GOING TO MORRISTOWN?


FAA INFORMATION EFFECTIVE 07 NOVEMBER 2019

Location

FAA Identifier: 12AZ
Lat/Long: 33-51-14.1160N 112-39-11.6290W
33-51.235267N 112-39.193817W
33.8539211,-112.6532303
(estimated)
Elevation: 1840 ft. / 560.8 m (surveyed)
Variation: 13E (1985)
From city: 2 miles W of MORRISTOWN, AZ
Time zone: UTC -7 (year round; does not observe DST)
Zip code: 85342

Airport Operations

Airport use: Private use. Permission required prior to landing
Activation date: 09/1963
Control tower: no
ARTCC: ALBUQUERQUE CENTER
FSS: PRESCOTT FLIGHT SERVICE STATION
Attendance: UNATNDD
Wind indicator: yes
Segmented circle: no

Airport Communications

WX AWOS-3 at E25 (10 nm NW): 121.375 (928-684-2487)

Nearby radio navigation aids

VOR radial/distance  VOR name  Freq  Var
BXKr006/25.5BUCKEYE VORTAC110.6014E

Airport Services

Airframe service: NONE
Powerplant service: NONE

Runway Information

Runway E/W

Dimensions: 2400 x 100 ft. / 732 x 30 m
Surface: gravel
RUNWAY E  RUNWAY W
Traffic pattern: rightright
Obstructions: hill, 5280 ft. from runwaynone

Airport Ownership and Management from official FAA records

Ownership: Privately-owned
Owner: JOUKO RANTA
PO BOX 366
MORRISTOWN, AZ 85342
Phone 602-616-2839
Manager: JOUKO RANTA
PO BOX 366
MORRISTOWN, AZ 85342
Phone 602-616-2839

Airport Operational Statistics

Aircraft based on the field: 1
Multi engine airplanes: 1
    

Additional Remarks

FOR CD CTC LUKE APCH AT 623-856-7361. IF UNA, CTC PHOENIX APCH AT 602-306-2565.

Instrument Procedures

There are no published instrument procedures at 12AZ.

Some nearby airports with instrument procedures:

KLUF - Luke Air Force Base (23 nm SE)
KGEU - Glendale Municipal Airport (27 nm SE)
KGYR - Phoenix Goodyear Airport (29 nm SE)
KDVT - Phoenix Deer Valley Airport (30 nm E)
KSDL - Scottsdale Airport (40 nm E)
 
Loc | Ops | Rwys | IFR | FBO | Links
Com | Nav | Svcs | Stats | Notes
Area around 12AZ (Ranta Strip Airport)
 
Road maps at: MapQuest Bing Google
 
Aerial photo
WARNING: Photo may not be current or correct
Aerial photo of 12AZ (Ranta Strip Airport)
Do you have a better or more recent aerial photo of Ranta Strip Airport that you would like to share? If so, please send us your photo.

 
Sectional chart

 
Airport distance calculator
Flying to Ranta Strip Airport? Find the distance to fly.

From to 12AZ

Sunrise and sunset
Times for 22-Nov-2019
 Local
(UTC-7)
 Zulu
(UTC)
Morning civil twilight06:4413:44
Sunrise07:1114:11
Sunset17:2300:23
Evening civil twilight17:5000:50

Current date and time
Zulu (UTC)  22-Nov-2019 09:42:45
Local (UTC-7)  22-Nov-2019 02:42:45
 
METAR
KLUF 
25nm SE 
220858Z AUTO 00000KT 10SM OVC016 12/11 A3010 RMK AO2 SLP190 T01150112 52010 $
KBXK 
26nm S 
220915Z AUTO RMK A01 PNO
KGEU 
26nm SE 
220258Z 09003KT 10SM FEW040 BKN060 12/09 A3005 RMK LAST
KGYR 
30nm SE 
220347Z 02005KT 10SM FEW040 BKN060 12/09 A3005 RMK LAST
KDVT 
31nm E 
220853Z AUTO 05003KT 10SM BKN027 OVC070 11/08 A3012 RMK AO2 SLP190 60000 T01060083 51008
KPHX 
39nm SE 
220851Z 08003KT 10SM FEW025 BKN055 BKN085 12/09 A3010 RMK AO2 SLP186 T01170089 53010
KSDL 
39nm E 
220853Z AUTO 00000KT 10SM SCT055 OVC075 10/09 A3008 RMK AO2 SLP177 T01000089 53005
TAF
KLUF 
25nm SE 
212349Z 2123/2302 VRB06KT 9999 VCSH FEW040 SCT050 BKN100 QNH2994INS BECMG 2202/2203 VRB06KT 9999 NSW BKN050 QNH3003INS BECMG 2211/2212 VRB06KT 9999 SCT040 QNH3012INS TX16/2222Z TN10/2214Z
NOTAMs
Click for the latest NOTAMs
NOTAMs are issued by the DoD/FAA and will open in a separate window not controlled by AirNav.

 

 
 

Would you like to see your business listed on this page?

 If your business provides an interesting product or service to pilots, flight crews, aircraft, or users of the Ranta Strip Airport, you should consider listing it here.  To start the listing process, click on the button below
 
Add a business
 

Other Pages about Ranta Strip Airport

Update a link
 
Copyright © AirNav, LLC. All rights reserved. Privacy Policy  Contact